Time,TemperatureF,DewpointF,PressureIn,WindDirection,WindDirectionDegrees,WindSpeedMPH,WindSpeedGustMPH,Humidity,HourlyPrecipIn,Conditions,Clouds,dailyrainin,SoftwareType,DateUTC
2013-03-01 00:01:00,26.4,23.9,29.33,ENE,74,4.0,4.0,90,0.00,,,0.00,Wunderground v.1.15,2013-03-01 09:01:00,
2013-03-01 00:06:00,26.4,23.9,29.33,NE,41,4.0,4.0,90,0.00,,,0.00,Wunderground v.1.15,2013-03-01 09:06:00,
2013-03-01 00:12:00,26.3,23.8,29.33,East,79,4.0,5.0,90,0.00,,,0.00,Wunderground v.1.15,2013-03-01 09:12:00,
2013-03-01 00:18:00,26.2,23.7,29.33,East,81,5.0,5.0,90,0.00,,,0.00,Wunderground v.1.15,2013-03-01 09:18:00,
2013-03-01 00:24:00,26.2,23.7,29.34,East,85,4.0,4.0,90,0.00,,,0.00,Wunderground v.1.15,2013-03-01 09:24:00,
2013-03-01 00:29:00,26.2,23.7,29.34,East,82,3.0,4.0,90,0.00,,,0.00,Wunderground v.1.15,2013-03-01 09:29:00,
2013-03-01 00:35:00,26.2,23.9,29.34,NE,40,4.0,6.0,91,0.00,,,0.00,Wunderground v.1.15,2013-03-01 09:35:00,
2013-03-01 00:41:00,26.3,24.0,29.34,NE,51,5.0,7.0,91,0.00,,,0.00,Wunderground v.1.15,2013-03-01 09:41:00,
2013-03-01 00:46:00,26.3,24.0,29.34,NE,44,7.0,8.0,91,0.00,,,0.00,Wunderground v.1.15,2013-03-01 09:46:00,
2013-03-01 00:52:00,26.3,24.0,29.34,NE,50,7.0,7.0,91,0.00,,,0.00,Wunderground v.1.15,2013-03-01 09:52:00,
2013-03-01 00:58:00,26.3,24.0,29.35,NE,46,6.0,8.0,91,0.00,,,0.00,Wunderground v.1.15,2013-03-01 09:58:00,
2013-03-01 01:04:00,26.4,24.1,29.35,NE,38,6.0,7.0,91,0.00,,,0.00,Wunderground v.1.15,2013-03-01 10:04:00,
2013-03-01 01:09:00,26.3,24.0,29.35,NE,34,6.0,7.0,91,0.00,,,0.00,Wunderground v.1.15,2013-03-01 10:09:00,
2013-03-01 01:15:00,26.3,24.0,29.35,NE,38,6.0,9.0,91,0.00,,,0.00,Wunderground v.1.15,2013-03-01 10:15:00,
2013-03-01 01:21:00,26.3,24.0,29.36,NNE,32,7.0,7.0,91,0.00,,,0.00,Wunderground v.1.15,2013-03-01 10:21:00,
2013-03-01 01:27:00,26.1,23.8,29.36,NE,34,7.0,8.0,91,0.00,,,0.00,Wunderground v.1.15,2013-03-01 10:27:00,
2013-03-01 01:32:00,26.0,24.0,29.36,NE,41,7.0,7.0,92,0.00,,,0.00,Wunderground v.1.15,2013-03-01 10:32:00,
2013-03-01 01:38:00,25.9,23.9,29.36,NE,50,7.0,7.0,92,0.00,,,0.00,Wunderground v.1.15,2013-03-01 10:38:00,
2013-03-01 01:44:00,25.9,23.9,29.36,NE,43,7.0,8.0,92,0.00,,,0.00,Wunderground v.1.15,2013-03-01 10:44:00,
2013-03-01 01:50:00,26.0,24.3,29.36,NE,51,7.0,8.0,93,0.00,,,0.00,Wunderground v.1.15,2013-03-01 10:50:00,
2013-03-01 01:55:00,26.1,24.1,29.37,NNE,32,7.0,8.0,92,0.00,,,0.00,Wunderground v.1.15,2013-03-01 10:55:00,
2013-03-01 02:00:00,26.1,24.1,29.37,NE,44,7.0,8.0,92,0.00,,,0.00,Wunderground v.1.15,2013-03-01 11:00:00,
2013-03-01 02:06:00,26.1,24.1,29.37,NE,43,6.0,7.0,92,0.00,,,0.00,Wunderground v.1.15,2013-03-01 11:06:00,
2013-03-01 02:12:00,26.0,24.0,29.37,NE,39,6.0,8.0,92,0.00,,,0.00,Wunderground v.1.15,2013-03-01 11:12:00,
2013-03-01 02:18:00,26.0,24.0,29.38,NE,40,6.0,8.0,92,0.00,,,0.00,Wunderground v.1.15,2013-03-01 11:18:00,
2013-03-01 02:24:00,25.9,23.9,29.38,NE,44,5.0,6.0,92,0.00,,,0.00,Wunderground v.1.15,2013-03-01 11:24:00,
2013-03-01 02:30:00,25.9,23.9,29.38,NE,36,5.0,6.0,92,0.00,,,0.00,Wunderground v.1.15,2013-03-01 11:30:00,
2013-03-01 02:36:00,25.9,23.9,29.38,NE,43,4.0,5.0,92,0.00,,,0.00,Wunderground v.1.15,2013-03-01 11:36:00,
2013-03-01 02:42:00,25.8,23.8,29.38,NE,47,4.0,4.0,92,0.00,,,0.00,Wunderground v.1.15,2013-03-01 11:42:00,
2013-03-01 02:48:00,25.8,23.8,29.38,NE,41,5.0,5.0,92,0.00,,,0.00,Wunderground v.1.15,2013-03-01 11:48:00,
2013-03-01 02:53:00,25.8,23.8,29.39,NE,46,5.0,5.0,92,0.00,,,0.00,Wunderground v.1.15,2013-03-01 11:53:00,
2013-03-01 02:58:00,25.9,23.9,29.39,NE,53,4.0,5.0,92,0.00,,,0.00,Wunderground v.1.15,2013-03-01 11:58:00,
2013-03-01 03:04:00,25.8,23.8,29.39,NE,53,4.0,4.0,92,0.00,,,0.00,Wunderground v.1.15,2013-03-01 12:04:00,
2013-03-01 03:10:00,25.8,23.8,29.39,NE,43,4.0,4.0,92,0.00,,,0.00,Wunderground v.1.15,2013-03-01 12:10:00,
2013-03-01 03:16:00,25.8,23.8,29.39,NE,54,3.0,4.0,92,0.00,,,0.00,Wunderground v.1.15,2013-03-01 12:16:00,
2013-03-01 03:22:00,25.8,23.5,29.40,ENE,71,2.0,3.0,91,0.00,,,0.00,Wunderground v.1.15,2013-03-01 12:22:00,
2013-03-01 03:28:00,25.7,23.4,29.40,NNE,25,1.0,3.0,91,0.00,,,0.00,Wunderground v.1.15,2013-03-01 12:28:00,
2013-03-01 03:34:00,25.7,23.4,29.40,NNE,27,1.0,3.0,91,0.00,,,0.00,Wunderground v.1.15,2013-03-01 12:34:00,
2013-03-01 03:39:00,25.7,23.4,29.40,NNE,32,2.0,4.0,91,0.00,,,0.00,Wunderground v.1.15,2013-03-01 12:39:00,
2013-03-01 03:45:00,25.8,23.5,29.40,NE,46,4.0,5.0,91,0.00,,,0.00,Wunderground v.1.15,2013-03-01 12:45:00,
2013-03-01 03:51:00,25.8,23.5,29.40,NE,46,4.0,4.0,91,0.00,,,0.00,Wunderground v.1.15,2013-03-01 12:51:00,
2013-03-01 03:57:00,25.9,23.6,29.40,NE,48,4.0,5.0,91,0.00,,,0.00,Wunderground v.1.15,2013-03-01 12:57:00,
2013-03-01 04:02:00,26.0,23.7,29.40,ENE,57,3.0,3.0,91,0.00,,,0.00,Wunderground v.1.15,2013-03-01 13:02:00,
2013-03-01 04:08:00,26.1,23.8,29.40,NE,53,2.0,3.0,91,0.00,,,0.00,Wunderground v.1.15,2013-03-01 13:08:00,
2013-03-01 04:14:00,26.1,23.6,29.41,West,262,1.0,2.0,90,0.00,,,0.00,Wunderground v.1.15,2013-03-01 13:14:00,
2013-03-01 04:20:00,25.8,23.5,29.41,WNW,297,1.0,2.0,91,0.00,,,0.00,Wunderground v.1.15,2013-03-01 13:20:00,
2013-03-01 04:25:00,25.7,23.4,29.41,WNW,297,1.0,1.0,91,0.00,,,0.00,Wunderground v.1.15,2013-03-01 13:25:00,
2013-03-01 04:31:00,25.5,23.2,29.42,NNW,340,0.0,1.0,91,0.00,,,0.00,Wunderground v.1.15,2013-03-01 13:31:00,
2013-03-01 04:37:00,25.4,23.4,29.42,North,356,1.0,2.0,92,0.00,,,0.00,Wunderground v.1.15,2013-03-01 13:37:00,
2013-03-01 04:43:00,25.6,23.9,29.42,NW,320,1.0,1.0,93,0.00,,,0.00,Wunderground v.1.15,2013-03-01 13:43:00,
2013-03-01 04:48:00,25.6,23.9,29.42,NNW,335,1.0,2.0,93,0.00,,,0.00,Wunderground v.1.15,2013-03-01 13:48:00,
2013-03-01 04:54:00,25.6,24.1,29.42,North,354,2.0,2.0,94,0.00,,,0.00,Wunderground v.1.15,2013-03-01 13:54:00,
2013-03-01 05:00:00,25.7,24.2,29.42,North,355,1.0,2.0,94,0.00,,,0.00,Wunderground v.1.15,2013-03-01 14:00:00,
2013-03-01 05:06:00,25.6,24.1,29.43,NNE,30,1.0,2.0,94,0.00,,,0.00,Wunderground v.1.15,2013-03-01 14:06:00,
2013-03-01 05:11:00,25.6,24.1,29.43,NNE,29,1.0,2.0,94,0.00,,,0.00,Wunderground v.1.15,2013-03-01 14:11:00,
2013-03-01 05:17:00,25.6,24.1,29.43,NE,35,2.0,3.0,94,0.00,,,0.00,Wunderground v.1.15,2013-03-01 14:17:00,
2013-03-01 05:23:00,25.7,24.0,29.43,NE,42,2.0,2.0,93,0.00,,,0.00,Wunderground v.1.15,2013-03-01 14:23:00,
2013-03-01 05:28:00,25.7,24.0,29.43,NE,45,1.0,2.0,93,0.00,,,0.00,Wunderground v.1.15,2013-03-01 14:28:00,
2013-03-01 05:34:00,25.9,24.2,29.43,NE,49,1.0,1.0,93,0.00,,,0.00,Wunderground v.1.15,2013-03-01 14:34:00,
2013-03-01 05:40:00,25.9,24.2,29.44,NE,48,1.0,1.0,93,0.00,,,0.00,Wunderground v.1.15,2013-03-01 14:40:00,
2013-03-01 05:46:00,25.9,24.2,29.44,NE,49,1.0,1.0,93,0.00,,,0.00,Wunderground v.1.15,2013-03-01 14:46:00,
2013-03-01 05:51:00,25.9,24.2,29.44,NE,49,0.0,0.0,93,0.00,,,0.00,Wunderground v.1.15,2013-03-01 14:51:00,
2013-03-01 05:57:00,25.9,24.2,29.45,NE,49,0.0,0.0,93,0.00,,,0.00,Wunderground v.1.15,2013-03-01 14:57:00,
2013-03-01 06:03:00,25.9,24.2,29.45,NE,47,0.0,3.0,93,0.00,,,0.00,Wunderground v.1.15,2013-03-01 15:03:00,
2013-03-01 06:09:00,26.0,24.3,29.45,NNE,32,1.0,3.0,93,0.00,,,0.00,Wunderground v.1.15,2013-03-01 15:09:00,
2013-03-01 06:14:00,26.1,24.4,29.45,NNE,32,1.0,3.0,93,0.00,,,0.00,Wunderground v.1.15,2013-03-01 15:14:00,
2013-03-01 06:21:00,26.2,24.5,29.45,NNE,32,1.0,3.0,93,0.00,,,0.00,Wunderground v.1.15,2013-03-01 15:21:00,
2013-03-01 06:26:00,26.2,24.5,29.45,NNE,25,1.0,3.0,93,0.00,,,0.00,Wunderground v.1.15,2013-03-01 15:26:00,
2013-03-01 06:32:00,26.2,24.7,29.46,NNE,13,1.0,3.0,94,0.00,,,0.00,Wunderground v.1.15,2013-03-01 15:32:00,
2013-03-01 06:38:00,26.2,24.7,29.46,NNE,16,1.0,3.0,94,0.00,,,0.00,Wunderground v.1.15,2013-03-01 15:38:00,
2013-03-01 06:43:00,26.2,24.7,29.46,NNE,26,1.0,3.0,94,0.00,,,0.00,Wunderground v.1.15,2013-03-01 15:43:00,
2013-03-01 06:49:00,26.2,24.7,29.46,NNE,32,2.0,3.0,94,0.00,,,0.00,Wunderground v.1.15,2013-03-01 15:49:00,
2013-03-01 06:55:00,26.4,24.9,29.46,NNE,32,1.0,3.0,94,0.00,,,0.00,Wunderground v.1.15,2013-03-01 15:55:00,
2013-03-01 07:01:00,26.5,25.0,29.46,NNE,32,1.0,3.0,94,0.00,,,0.00,Wunderground v.1.15,2013-03-01 16:01:00,
2013-03-01 07:06:00,26.5,25.0,29.47,NE,44,1.0,3.0,94,0.00,,,0.00,Wunderground v.1.15,2013-03-01 16:06:00,
2013-03-01 07:12:00,26.5,25.0,29.47,NE,44,1.0,3.0,94,0.00,,,0.00,Wunderground v.1.15,2013-03-01 16:12:00,
2013-03-01 07:18:00,26.5,25.0,29.47,NE,44,1.0,3.0,94,0.00,,,0.00,Wunderground v.1.15,2013-03-01 16:18:00,
2013-03-01 07:24:00,26.5,25.0,29.47,NE,44,0.0,3.0,94,0.00,,,0.00,Wunderground v.1.15,2013-03-01 16:24:00,
2013-03-01 07:29:00,26.5,25.0,29.47,NE,44,0.0,3.0,94,0.00,,,0.00,Wunderground v.1.15,2013-03-01 16:29:00,
2013-03-01 07:35:00,26.5,25.0,29.47,NE,44,0.0,3.0,94,0.00,,,0.00,Wunderground v.1.15,2013-03-01 16:35:00,
2013-03-01 07:41:00,26.5,25.3,29.47,NNE,29,0.0,3.0,95,0.00,,,0.00,Wunderground v.1.15,2013-03-01 16:41:00,
2013-03-01 07:46:00,26.6,25.4,29.48,NNE,29,0.0,3.0,95,0.00,,,0.00,Wunderground v.1.15,2013-03-01 16:46:00,
2013-03-01 07:52:00,26.5,25.3,29.48,NNE,29,0.0,3.0,95,0.00,,,0.00,Wunderground v.1.15,2013-03-01 16:52:00,
2013-03-01 07:58:00,26.5,25.3,29.48,NNE,28,0.0,3.0,95,0.00,,,0.00,Wunderground v.1.15,2013-03-01 16:58:00,
2013-03-01 08:04:00,26.7,25.5,29.48,NNE,29,0.0,3.0,95,0.00,,,0.00,Wunderground v.1.15,2013-03-01 17:04:00,
2013-03-01 08:09:00,26.6,25.4,29.48,NNE,29,0.0,3.0,95,0.00,,,0.00,Wunderground v.1.15,2013-03-01 17:09:00,
2013-03-01 08:15:00,26.6,25.4,29.49,NNE,29,0.0,3.0,95,0.00,,,0.00,Wunderground v.1.15,2013-03-01 17:15:00,
2013-03-01 08:21:00,26.6,25.4,29.49,NNE,29,0.0,3.0,95,0.00,,,0.00,Wunderground v.1.15,2013-03-01 17:21:00,
2013-03-01 08:27:00,26.7,25.5,29.49,NNE,29,0.0,3.0,95,0.00,,,0.00,Wunderground v.1.15,2013-03-01 17:27:00,
2013-03-01 08:32:00,26.8,25.6,29.49,NNE,29,0.0,3.0,95,0.00,,,0.00,Wunderground v.1.15,2013-03-01 17:32:00,
2013-03-01 08:38:00,26.9,25.7,29.49,NNE,28,0.0,3.0,95,0.00,,,0.00,Wunderground v.1.15,2013-03-01 17:38:00,
2013-03-01 08:44:00,27.0,25.8,29.50,NNE,28,0.0,3.0,95,0.00,,,0.00,Wunderground v.1.15,2013-03-01 17:44:00,
2013-03-01 08:50:00,27.1,25.9,29.50,NNE,29,0.0,3.0,95,0.00,,,0.00,Wunderground v.1.15,2013-03-01 17:50:00,
2013-03-01 08:56:00,27.1,25.9,29.50,NNE,29,0.0,3.0,95,0.00,,,0.00,Wunderground v.1.15,2013-03-01 17:56:00,
2013-03-01 09:02:00,27.1,25.9,29.50,NNE,29,0.0,3.0,95,0.00,,,0.00,Wunderground v.1.15,2013-03-01 18:02:00,
2013-03-01 09:08:00,27.0,25.8,29.50,NNE,25,1.0,3.0,95,0.00,,,0.00,Wunderground v.1.15,2013-03-01 18:08:00,
2013-03-01 09:13:00,27.1,25.9,29.51,NNE,16,1.0,3.0,95,0.00,,,0.00,Wunderground v.1.15,2013-03-01 18:13:00,
2013-03-01 09:19:00,27.1,25.9,29.51,NNE,29,1.0,3.0,95,0.00,,,0.00,Wunderground v.1.15,2013-03-01 18:19:00,
2013-03-01 09:25:00,27.1,25.9,29.51,NE,38,2.0,3.0,95,0.00,,,0.00,Wunderground v.1.15,2013-03-01 18:25:00,
2013-03-01 09:31:00,27.0,25.5,29.52,NE,35,1.0,1.0,94,0.00,,,0.00,Wunderground v.1.15,2013-03-01 18:31:00,
2013-03-01 09:36:00,27.2,26.0,29.52,NE,36,0.0,3.0,95,0.00,,,0.00,Wunderground v.1.15,2013-03-01 18:36:00,
2013-03-01 09:42:00,27.2,25.7,29.52,NNE,25,0.0,3.0,94,0.00,,,0.00,Wunderground v.1.15,2013-03-01 18:42:00,
2013-03-01 09:48:00,27.1,25.6,29.52,NNE,27,0.0,3.0,94,0.00,,,0.00,Wunderground v.1.15,2013-03-01 18:48:00,
2013-03-01 09:54:00,27.0,25.5,29.53,NNE,29,1.0,3.0,94,0.00,,,0.00,Wunderground v.1.15,2013-03-01 18:54:00,
2013-03-01 10:00:00,27.1,25.6,29.53,NNE,27,0.0,3.0,94,0.00,,,0.00,Wunderground v.1.15,2013-03-01 19:00:00,
2013-03-01 10:06:00,27.4,25.9,29.53,NNE,27,0.0,3.0,94,0.00,,,0.00,Wunderground v.1.15,2013-03-01 19:06:00,
2013-03-01 10:12:00,27.7,26.2,29.54,NNE,27,0.0,3.0,94,0.00,,,0.00,Wunderground v.1.15,2013-03-01 19:12:00,
2013-03-01 10:17:00,27.7,26.2,29.54,NNE,28,0.0,3.0,94,0.00,,,0.00,Wunderground v.1.15,2013-03-01 19:17:00,
2013-03-01 10:23:00,27.5,26.0,29.54,NNE,28,0.0,3.0,94,0.00,,,0.00,Wunderground v.1.15,2013-03-01 19:23:00,
2013-03-01 10:29:00,27.5,25.7,29.55,NNE,29,0.0,3.0,93,0.00,,,0.00,Wunderground v.1.15,2013-03-01 19:29:00,
2013-03-01 10:35:00,27.4,25.6,29.55,NNE,29,0.0,3.0,93,0.00,,,0.00,Wunderground v.1.15,2013-03-01 19:35:00,
2013-03-01 10:40:00,27.2,25.7,29.55,NNE,27,0.0,3.0,94,0.00,,,0.00,Wunderground v.1.15,2013-03-01 19:40:00,
2013-03-01 10:46:00,27.2,25.7,29.55,NNE,29,0.0,3.0,94,0.00,,,0.00,Wunderground v.1.15,2013-03-01 19:46:00,
2013-03-01 10:52:00,27.1,25.3,29.56,NE,38,1.0,3.0,93,0.00,,,0.00,Wunderground v.1.15,2013-03-01 19:52:00,
2013-03-01 10:58:00,27.0,25.2,29.56,ENE,58,1.0,3.0,93,0.00,,,0.00,Wunderground v.1.15,2013-03-01 19:58:00,
2013-03-01 11:04:00,27.1,25.1,29.56,NE,56,1.0,3.0,92,0.00,,,0.00,Wunderground v.1.15,2013-03-01 20:04:00,
2013-03-01 11:10:00,27.2,25.2,29.57,ENE,64,1.0,3.0,92,0.00,,,0.00,Wunderground v.1.15,2013-03-01 20:10:00,
2013-03-01 11:16:00,27.4,25.4,29.57,ENE,77,2.0,3.0,92,0.00,,,0.00,Wunderground v.1.15,2013-03-01 20:16:00,
2013-03-01 11:22:00,27.7,25.4,29.57,ENE,64,2.0,3.0,91,0.00,,,0.00,Wunderground v.1.15,2013-03-01 20:22:00,
2013-03-01 11:27:00,27.9,25.6,29.58,NE,37,1.0,3.0,91,0.00,,,0.00,Wunderground v.1.15,2013-03-01 20:27:00,
2013-03-01 11:33:00,28.1,25.5,29.58,NE,37,0.0,3.0,90,0.00,,,0.00,Wunderground v.1.15,2013-03-01 20:33:00,
2013-03-01 11:39:00,28.1,25.5,29.58,NE,34,1.0,3.0,90,0.00,,,0.00,Wunderground v.1.15,2013-03-01 20:39:00,
2013-03-01 11:45:00,28.3,25.5,29.59,NE,34,0.0,3.0,89,0.00,,,0.00,Wunderground v.1.15,2013-03-01 20:45:00,
2013-03-01 11:51:00,28.9,26.1,29.59,NNE,12,0.0,3.0,89,0.00,,,0.00,Wunderground v.1.15,2013-03-01 20:51:00,
2013-03-01 11:57:00,29.5,26.1,29.59,NNE,13,0.0,3.0,87,0.00,,,0.00,Wunderground v.1.15,2013-03-01 20:57:00,
2013-03-01 12:03:00,29.1,26.0,29.59,NNE,25,1.0,3.0,88,0.00,,,0.00,Wunderground v.1.15,2013-03-01 21:03:00,
2013-03-01 12:09:00,28.9,26.1,29.60,NW,314,1.0,3.0,89,0.00,,,0.00,Wunderground v.1.15,2013-03-01 21:09:00,
2013-03-01 12:14:00,29.2,26.6,29.60,North,351,1.0,3.0,90,0.00,,,0.00,Wunderground v.1.15,2013-03-01 21:14:00,
2013-03-01 12:20:00,29.4,26.8,29.60,WNW,301,2.0,3.0,90,0.00,,,0.00,Wunderground v.1.15,2013-03-01 21:20:00,
2013-03-01 12:26:00,29.3,26.7,29.61,NW,310,3.0,3.0,90,0.00,,,0.00,Wunderground v.1.15,2013-03-01 21:26:00,
2013-03-01 12:32:00,29.1,26.5,29.61,North,1,3.0,3.0,90,0.00,,,0.00,Wunderground v.1.15,2013-03-01 21:32:00,
2013-03-01 12:38:00,29.0,26.7,29.61,WNW,301,3.0,4.0,91,0.00,,,0.00,Wunderground v.1.15,2013-03-01 21:38:00,
2013-03-01 12:44:00,28.8,26.5,29.61,NW,310,3.0,5.0,91,0.00,,,0.00,Wunderground v.1.15,2013-03-01 21:44:00,
2013-03-01 12:50:00,28.9,26.6,29.61,NNE,20,2.0,5.0,91,0.00,,,0.00,Wunderground v.1.15,2013-03-01 21:50:00,
2013-03-01 12:55:00,29.0,26.4,29.62,NNW,336,1.0,3.0,90,0.00,,,0.00,Wunderground v.1.15,2013-03-01 21:55:00,
2013-03-01 13:01:00,29.2,26.6,29.62,NW,319,1.0,3.0,90,0.00,,,0.00,Wunderground v.1.15,2013-03-01 22:01:00,
2013-03-01 13:06:00,29.0,26.4,29.62,NW,325,2.0,4.0,90,0.00,,,0.00,Wunderground v.1.15,2013-03-01 22:06:00,
2013-03-01 13:12:00,29.0,26.4,29.62,NW,315,3.0,3.0,90,0.00,,,0.00,Wunderground v.1.15,2013-03-01 22:12:00,
2013-03-01 13:18:00,28.9,26.3,29.63,NW,304,3.0,5.0,90,0.00,,,0.00,Wunderground v.1.15,2013-03-01 22:18:00,
2013-03-01 13:24:00,28.8,26.2,29.63,WNW,283,3.0,3.0,90,0.00,,,0.00,Wunderground v.1.15,2013-03-01 22:24:00,
2013-03-01 13:30:00,28.8,26.2,29.63,WNW,292,3.0,4.0,90,0.00,,,0.00,Wunderground v.1.15,2013-03-01 22:30:00,
2013-03-01 13:36:00,28.6,26.0,29.64,NW,314,3.0,4.0,90,0.00,,,0.00,Wunderground v.1.15,2013-03-01 22:36:00,
2013-03-01 13:42:00,28.6,26.0,29.64,NNW,339,3.0,3.0,90,0.00,,,0.00,Wunderground v.1.15,2013-03-01 22:42:00,
2013-03-01 13:47:00,28.3,25.7,29.64,WNW,293,3.0,5.0,90,0.00,,,0.00,Wunderground v.1.15,2013-03-01 22:47:00,
2013-03-01 13:53:00,28.4,26.1,29.64,WNW,294,3.0,3.0,91,0.00,,,0.00,Wunderground v.1.15,2013-03-01 22:53:00,
2013-03-01 13:59:00,28.3,26.0,29.64,NW,314,3.0,4.0,91,0.00,,,0.00,Wunderground v.1.15,2013-03-01 22:59:00,
2013-03-01 14:05:00,28.3,26.0,29.65,NNE,29,3.0,3.0,91,0.00,,,0.00,Wunderground v.1.15,2013-03-01 23:05:00,
2013-03-01 14:10:00,28.6,26.3,29.65,NNE,16,1.0,3.0,91,0.00,,,0.00,Wunderground v.1.15,2013-03-01 23:10:00,
2013-03-01 14:16:00,28.7,26.4,29.65,North,7,1.0,3.0,91,0.00,,,0.00,Wunderground v.1.15,2013-03-01 23:16:00,
2013-03-01 14:22:00,28.6,26.0,29.65,North,353,1.0,3.0,90,0.00,,,0.00,Wunderground v.1.15,2013-03-01 23:22:00,
2013-03-01 14:28:00,28.4,26.1,29.65,NNE,20,2.0,3.0,91,0.00,,,0.00,Wunderground v.1.15,2013-03-01 23:28:00,
2013-03-01 14:34:00,28.4,26.1,29.66,North,360,1.0,3.0,91,0.00,,,0.00,Wunderground v.1.15,2013-03-01 23:34:00,
2013-03-01 14:40:00,28.4,26.1,29.66,North,358,1.0,3.0,91,0.00,,,0.00,Wunderground v.1.15,2013-03-01 23:40:00,
2013-03-01 14:46:00,28.5,26.5,29.66,North,7,1.0,3.0,92,0.00,,,0.00,Wunderground v.1.15,2013-03-01 23:46:00,
2013-03-01 14:51:00,28.5,26.2,29.66,North,356,1.0,3.0,91,0.00,,,0.00,Wunderground v.1.15,2013-03-01 23:51:00,
2013-03-01 14:57:00,28.4,26.4,29.66,NNE,13,1.0,3.0,92,0.00,,,0.00,Wunderground v.1.15,2013-03-01 23:57:00,
2013-03-01 15:03:00,28.4,26.4,29.66,NNW,336,1.0,3.0,92,0.00,,,0.00,Wunderground v.1.15,2013-03-02 00:03:00,
2013-03-01 15:09:00,28.3,26.3,29.66,NW,313,1.0,3.0,92,0.00,,,0.00,Wunderground v.1.15,2013-03-02 00:09:00,
2013-03-01 15:15:00,28.1,26.1,29.67,NNW,340,2.0,3.0,92,0.00,,,0.00,Wunderground v.1.15,2013-03-02 00:15:00,
2013-03-01 15:21:00,28.1,26.3,29.67,North,355,1.0,3.0,93,0.00,,,0.00,Wunderground v.1.15,2013-03-02 00:21:00,
2013-03-01 15:27:00,28.2,26.4,29.67,North,10,1.0,3.0,93,0.00,,,0.00,Wunderground v.1.15,2013-03-02 00:27:00,
2013-03-01 15:33:00,28.3,26.3,29.67,North,11,0.0,3.0,92,0.00,,,0.00,Wunderground v.1.15,2013-03-02 00:33:00,
2013-03-01 15:38:00,28.4,26.4,29.68,North,10,0.0,3.0,92,0.00,,,0.00,Wunderground v.1.15,2013-03-02 00:38:00,
2013-03-01 15:44:00,28.4,26.4,29.68,North,3,0.0,3.0,92,0.00,,,0.00,Wunderground v.1.15,2013-03-02 00:44:00,
2013-03-01 15:49:00,28.4,26.4,29.68,NNE,15,0.0,3.0,92,0.00,,,0.00,Wunderground v.1.15,2013-03-02 00:49:00,
2013-03-01 15:55:00,28.3,26.3,29.68,NNE,13,0.0,3.0,92,0.00,,,0.00,Wunderground v.1.15,2013-03-02 00:55:00,
2013-03-01 16:01:00,28.2,26.2,29.68,NW,307,1.0,3.0,92,0.00,,,0.00,Wunderground v.1.15,2013-03-02 01:01:00,
2013-03-01 16:06:00,28.0,26.0,29.69,NNW,333,2.0,3.0,92,0.00,,,0.00,Wunderground v.1.15,2013-03-02 01:06:00,
2013-03-01 16:12:00,27.8,25.8,29.69,North,6,2.0,3.0,92,0.00,,,0.00,Wunderground v.1.15,2013-03-02 01:12:00,
2013-03-01 16:18:00,27.5,25.7,29.69,North,349,2.0,4.0,93,0.00,,,0.00,Wunderground v.1.15,2013-03-02 01:18:00,
2013-03-01 16:23:00,27.4,25.6,29.69,NW,320,2.0,3.0,93,0.00,,,0.00,Wunderground v.1.15,2013-03-02 01:23:00,
2013-03-01 16:29:00,27.5,25.7,29.69,NNW,342,1.0,3.0,93,0.00,,,0.00,Wunderground v.1.15,2013-03-02 01:29:00,
2013-03-01 16:35:00,27.4,25.6,29.69,NNE,25,1.0,3.0,93,0.00,,,0.00,Wunderground v.1.15,2013-03-02 01:35:00,
2013-03-01 16:41:00,27.3,25.5,29.70,NNE,15,1.0,3.0,93,0.00,,,0.00,Wunderground v.1.15,2013-03-02 01:41:00,
2013-03-01 16:46:00,27.3,25.5,29.70,NNE,25,1.0,3.0,93,0.00,,,0.00,Wunderground v.1.15,2013-03-02 01:46:00,
2013-03-01 16:52:00,27.3,25.5,29.70,NNE,27,1.0,3.0,93,0.00,,,0.00,Wunderground v.1.15,2013-03-02 01:52:00,
2013-03-01 16:58:00,27.3,25.5,29.70,NNE,30,1.0,3.0,93,0.00,,,0.00,Wunderground v.1.15,2013-03-02 01:58:00,
2013-03-01 17:04:00,27.3,25.8,29.70,NE,41,1.0,3.0,94,0.00,,,0.00,Wunderground v.1.15,2013-03-02 02:04:00,
2013-03-01 17:09:00,27.4,25.6,29.70,NNE,25,2.0,3.0,93,0.00,,,0.00,Wunderground v.1.15,2013-03-02 02:09:00,
2013-03-01 17:15:00,27.4,25.6,29.71,NNE,18,2.0,3.0,93,0.00,,,0.00,Wunderground v.1.15,2013-03-02 02:15:00,
2013-03-01 17:21:00,27.4,25.6,29.71,NNE,29,2.0,3.0,93,0.00,,,0.00,Wunderground v.1.15,2013-03-02 02:21:00,
2013-03-01 17:27:00,27.4,25.6,29.71,NNE,23,2.0,3.0,93,0.00,,,0.00,Wunderground v.1.15,2013-03-02 02:27:00,
2013-03-01 17:33:00,27.3,25.3,29.72,NE,36,2.0,4.0,92,0.00,,,0.00,Wunderground v.1.15,2013-03-02 02:33:00,
2013-03-01 17:39:00,27.3,25.3,29.72,NNE,32,2.0,4.0,92,0.00,,,0.00,Wunderground v.1.15,2013-03-02 02:39:00,
2013-03-01 17:45:00,27.2,25.2,29.71,NE,41,2.0,3.0,92,0.00,,,0.00,Wunderground v.1.15,2013-03-02 02:45:00,
2013-03-01 17:50:00,27.2,25.2,29.72,ENE,64,2.0,3.0,92,0.00,,,0.00,Wunderground v.1.15,2013-03-02 02:50:00,
2013-03-01 17:56:00,27.3,25.3,29.72,ENE,72,2.0,3.0,92,0.00,,,0.00,Wunderground v.1.15,2013-03-02 02:56:00,
2013-03-01 18:02:00,27.3,25.0,29.72,North,1,2.0,3.0,91,0.00,,,0.00,Wunderground v.1.15,2013-03-02 03:02:00,
2013-03-01 18:08:00,27.2,25.4,29.73,WNW,300,2.0,3.0,93,0.00,,,0.00,Wunderground v.1.15,2013-03-02 03:08:00,
2013-03-01 18:13:00,27.0,25.5,29.73,North,356,3.0,4.0,94,0.00,,,0.00,Wunderground v.1.15,2013-03-02 03:13:00,
2013-03-01 18:19:00,26.7,25.2,29.73,NNW,334,3.0,4.0,94,0.00,,,0.00,Wunderground v.1.15,2013-03-02 03:19:00,
2013-03-01 18:25:00,26.3,24.8,29.74,NW,320,2.0,3.0,94,0.00,,,0.00,Wunderground v.1.15,2013-03-02 03:25:00,
2013-03-01 18:30:00,26.3,25.1,29.74,North,6,1.0,3.0,95,0.00,,,0.00,Wunderground v.1.15,2013-03-02 03:30:00,
2013-03-01 18:36:00,26.2,25.0,29.74,North,1,1.0,3.0,95,0.00,,,0.00,Wunderground v.1.15,2013-03-02 03:36:00,
2013-03-01 18:41:00,26.2,25.0,29.74,NNE,18,1.0,1.0,95,0.00,,,0.00,Wunderground v.1.15,2013-03-02 03:41:00,
2013-03-01 18:47:00,26.1,24.9,29.75,NNE,16,1.0,3.0,95,0.00,,,0.00,Wunderground v.1.15,2013-03-02 03:47:00,
2013-03-01 18:53:00,26.1,24.9,29.75,NNE,25,1.0,3.0,95,0.00,,,0.00,Wunderground v.1.15,2013-03-02 03:53:00,
2013-03-01 18:58:00,26.0,24.8,29.75,NNE,25,0.0,3.0,95,0.00,,,0.00,Wunderground v.1.15,2013-03-02 03:58:00,
2013-03-01 19:04:00,25.9,24.7,29.75,NNE,20,1.0,3.0,95,0.00,,,0.00,Wunderground v.1.15,2013-03-02 04:04:00,
2013-03-01 19:10:00,25.9,24.7,29.76,NNE,25,1.0,3.0,95,0.00,,,0.00,Wunderground v.1.15,2013-03-02 04:10:00,
2013-03-01 19:15:00,25.9,24.7,29.76,NNE,25,1.0,3.0,95,0.00,,,0.00,Wunderground v.1.15,2013-03-02 04:15:00,
2013-03-01 19:21:00,25.9,24.7,29.76,NNE,14,1.0,1.0,95,0.00,,,0.00,Wunderground v.1.15,2013-03-02 04:21:00,
2013-03-01 19:26:00,25.9,24.7,29.76,NNE,16,0.0,3.0,95,0.00,,,0.00,Wunderground v.1.15,2013-03-02 04:26:00,
2013-03-01 19:32:00,25.8,24.6,29.77,NNE,15,0.0,3.0,95,0.00,,,0.00,Wunderground v.1.15,2013-03-02 04:32:00,
2013-03-01 19:38:00,25.7,24.5,29.77,NNE,16,0.0,3.0,95,0.00,,,0.00,Wunderground v.1.15,2013-03-02 04:38:00,
2013-03-01 19:44:00,25.6,24.4,29.77,NNE,32,0.0,3.0,95,0.00,,,0.00,Wunderground v.1.15,2013-03-02 04:44:00,
2013-03-01 19:50:00,25.5,24.3,29.77,NE,43,0.0,3.0,95,0.00,,,0.00,Wunderground v.1.15,2013-03-02 04:50:00,
2013-03-01 19:56:00,25.4,24.2,29.78,NE,49,0.0,3.0,95,0.00,,,0.00,Wunderground v.1.15,2013-03-02 04:56:00,
2013-03-01 20:00:00,25.3,24.1,29.78,ENE,70,1.0,3.0,95,0.00,,,0.00,Wunderground v.1.15,2013-03-02 05:00:00,
2013-03-01 20:01:00,25.3,24.1,29.78,ENE,70,1.0,3.0,95,0.00,,,0.00,Wunderground v.1.15,2013-03-02 05:01:00,
2013-03-01 20:02:00,25.3,24.1,29.78,ENE,70,1.0,3.0,95,0.00,,,0.00,Wunderground v.1.15,2013-03-02 05:02:00,
2013-03-01 20:06:00,25.3,24.1,29.78,ENE,71,1.0,3.0,95,0.00,,,0.00,Wunderground v.1.15,2013-03-02 05:06:00,
2013-03-01 20:11:00,25.1,23.9,29.78,ENE,70,1.0,3.0,95,0.00,,,0.00,Wunderground v.1.15,2013-03-02 05:11:00,
2013-03-01 20:17:00,25.1,23.9,29.78,ENE,62,1.0,3.0,95,0.00,,,0.00,Wunderground v.1.15,2013-03-02 05:17:00,
2013-03-01 20:23:00,25.1,23.9,29.78,ENE,62,3.0,3.0,95,0.00,,,0.00,Wunderground v.1.15,2013-03-02 05:23:00,
2013-03-01 20:29:00,25.0,23.5,29.79,NE,51,3.0,3.0,94,0.00,,,0.00,Wunderground v.1.15,2013-03-02 05:29:00,
2013-03-01 20:34:00,24.9,23.4,29.79,ENE,70,2.0,3.0,94,0.00,,,0.00,Wunderground v.1.15,2013-03-02 05:34:00,
2013-03-01 20:40:00,24.8,23.1,29.79,ESE,114,1.0,3.0,93,0.00,,,0.00,Wunderground v.1.15,2013-03-02 05:40:00,
2013-03-01 20:46:00,24.8,23.1,29.79,East,83,1.0,3.0,93,0.00,,,0.00,Wunderground v.1.15,2013-03-02 05:46:00,
2013-03-01 20:52:00,25.0,23.3,29.79,East,86,1.0,3.0,93,0.00,,,0.00,Wunderground v.1.15,2013-03-02 05:52:00,
2013-03-01 20:57:00,25.1,23.4,29.80,ENE,75,2.0,3.0,93,0.00,,,0.00,Wunderground v.1.15,2013-03-02 05:57:00,
2013-03-01 21:03:00,25.3,23.3,29.79,ENE,72,2.0,3.0,92,0.00,,,0.00,Wunderground v.1.15,2013-03-02 06:03:00,
2013-03-01 21:09:00,25.4,23.1,29.80,ENE,74,3.0,3.0,91,0.00,,,0.00,Wunderground v.1.15,2013-03-02 06:09:00,
2013-03-01 21:15:00,25.5,23.0,29.80,ENE,63,3.0,4.0,90,0.00,,,0.00,Wunderground v.1.15,2013-03-02 06:15:00,
2013-03-01 21:21:00,25.8,23.0,29.80,ENE,58,4.0,4.0,89,0.00,,,0.00,Wunderground v.1.15,2013-03-02 06:21:00,
2013-03-01 21:26:00,25.9,22.8,29.80,ENE,63,4.0,4.0,88,0.00,,,0.00,Wunderground v.1.15,2013-03-02 06:26:00,
2013-03-01 21:32:00,25.8,22.7,29.80,ENE,63,4.0,4.0,88,0.00,,,0.00,Wunderground v.1.15,2013-03-02 06:32:00,
2013-03-01 21:38:00,25.7,22.6,29.81,NE,53,4.0,4.0,88,0.00,,,0.00,Wunderground v.1.15,2013-03-02 06:38:00,
2013-03-01 21:44:00,25.4,22.1,29.81,ENE,62,4.0,5.0,87,0.00,,,0.00,Wunderground v.1.15,2013-03-02 06:44:00,
2013-03-01 21:49:00,25.4,21.5,29.81,ENE,61,5.0,6.0,85,0.00,,,0.00,Wunderground v.1.15,2013-03-02 06:49:00,
2013-03-01 21:55:00,25.1,21.2,29.81,ENE,65,5.0,6.0,85,0.00,,,0.00,Wunderground v.1.15,2013-03-02 06:55:00,
2013-03-01 22:01:00,24.9,21.0,29.81,ENE,74,6.0,6.0,85,0.00,,,0.00,Wunderground v.1.15,2013-03-02 07:01:00,
2013-03-01 22:07:00,24.8,20.9,29.82,East,79,5.0,6.0,85,0.00,,,0.00,Wunderground v.1.15,2013-03-02 07:07:00,
2013-03-01 22:12:00,24.7,20.8,29.82,ENE,70,5.0,5.0,85,0.00,,,0.00,Wunderground v.1.15,2013-03-02 07:12:00,
2013-03-01 22:17:00,24.6,20.5,29.82,ENE,68,5.0,6.0,84,0.00,,,0.00,Wunderground v.1.15,2013-03-02 07:17:00,
2013-03-01 22:23:00,24.6,20.5,29.82,ENE,77,5.0,5.0,84,0.00,,,0.00,Wunderground v.1.15,2013-03-02 07:23:00,
2013-03-01 22:29:00,24.4,20.3,29.82,ENE,74,4.0,5.0,84,0.00,,,0.00,Wunderground v.1.15,2013-03-02 07:29:00,
2013-03-01 22:35:00,24.3,20.2,29.82,East,79,4.0,5.0,84,0.00,,,0.00,Wunderground v.1.15,2013-03-02 07:35:00,
2013-03-01 22:40:00,24.4,20.3,29.82,ENE,59,4.0,5.0,84,0.00,,,0.00,Wunderground v.1.15,2013-03-02 07:40:00,
2013-03-01 22:46:00,24.3,20.2,29.82,East,79,4.0,5.0,84,0.00,,,0.00,Wunderground v.1.15,2013-03-02 07:46:00,
2013-03-01 22:52:00,24.2,20.1,29.83,East,79,4.0,4.0,84,0.00,,,0.00,Wunderground v.1.15,2013-03-02 07:52:00,
2013-03-01 22:58:00,24.0,19.9,29.83,East,87,3.0,4.0,84,0.00,,,0.00,Wunderground v.1.15,2013-03-02 07:58:00,
2013-03-01 23:04:00,23.8,19.7,29.83,East,96,3.0,3.0,84,0.00,,,0.00,Wunderground v.1.15,2013-03-02 08:04:00,
2013-03-01 23:10:00,23.6,19.5,29.83,East,79,3.0,3.0,84,0.00,,,0.00,Wunderground v.1.15,2013-03-02 08:10:00,
2013-03-01 23:16:00,23.8,19.7,29.83,East,83,3.0,5.0,84,0.00,,,0.00,Wunderground v.1.15,2013-03-02 08:16:00,
2013-03-01 23:22:00,23.8,19.7,29.84,East,79,4.0,4.0,84,0.00,,,0.00,Wunderground v.1.15,2013-03-02 08:22:00,
2013-03-01 23:28:00,23.6,19.5,29.84,East,101,4.0,5.0,84,0.00,,,0.00,Wunderground v.1.15,2013-03-02 08:28:00,
2013-03-01 23:33:00,23.7,20.1,29.84,East,85,5.0,5.0,86,0.00,,,0.00,Wunderground v.1.15,2013-03-02 08:33:00,
2013-03-01 23:39:00,23.8,20.2,29.84,East,81,4.0,5.0,86,0.00,,,0.00,Wunderground v.1.15,2013-03-02 08:39:00,
2013-03-01 23:45:00,24.2,20.6,29.85,ENE,73,5.0,5.0,86,0.00,,,0.00,Wunderground v.1.15,2013-03-02 08:45:00,
2013-03-01 23:51:00,24.2,20.3,29.85,East,86,5.0,5.0,85,0.00,,,0.00,Wunderground v.1.15,2013-03-02 08:51:00,
2013-03-01 23:56:00,24.0,20.1,29.85,East,89,6.0,6.0,85,0.00,,,0.00,Wunderground v.1.15,2013-03-02 08:56:00,